Time;durP1;ratioP1;P1;durP2;ratioP2;P2;SDS_P1;SDS_P2;PMS_P1;PMS_P2;Temp;Humidity;BMP_temperature;BMP_pressure;BME280_temperature;BME280_humidity;BME280_pressure;Samples;Min_cycle;Max_cycle;Signal;HPM_P1;HPM_P2
2022/12/18 00:00:29;;;;;;;28.02;8.73;;;;;;;;;;4990544;28;20119;-68
2022/12/18 00:02:55;;;;;;;7.43;4.15;;;;;;;;;;4991170;28;20025;-68
2022/12/18 00:05:20;;;;;;;32.58;9.93;;;;;;;;;;4988789;28;20394;-68
2022/12/18 00:07:45;;;;;;;21.52;7.28;;;;;;;;;;4990072;28;20470;-68
2022/12/18 00:10:10;;;;;;;15.20;5.07;;;;;;;;;;4988794;28;20084;-68
2022/12/18 00:12:36;;;;;;;12.52;5.95;;;;;;;;;;4990660;28;20427;-68
2022/12/18 00:15:01;;;;;;;15.88;6.40;;;;;;;;;;4990588;28;20440;-68
2022/12/18 00:17:26;;;;;;;18.88;8.30;;;;;;;;;;4990963;28;20440;-68
2022/12/18 00:19:51;;;;;;;9.98;5.80;;;;;;;;;;4993298;28;20394;-68
2022/12/18 00:22:18;;;;;;;23.35;9.48;;;;;;;;;;4992981;28;20014;-68
2022/12/18 00:24:43;;;;;;;15.93;5.53;;;;;;;;;;4993881;28;20046;-68
2022/12/18 00:27:08;;;;;;;15.95;6.97;;;;;;;;;;4993868;28;20048;-68
2022/12/18 00:29:33;;;;;;;27.90;8.52;;;;;;;;;;4993267;28;20410;-68
2022/12/18 00:31:58;;;;;;;25.33;8.18;;;;;;;;;;4994327;28;20121;-68
2022/12/18 00:34:24;;;;;;;20.88;6.97;;;;;;;;;;4992238;28;20383;-68
2022/12/18 00:36:49;;;;;;;17.63;7.80;;;;;;;;;;4991576;28;20026;-69
2022/12/18 00:39:14;;;;;;;16.33;6.43;;;;;;;;;;4994537;28;20073;-68
2022/12/18 00:44:23;;;;;;;21.63;7.90;;;;;;;;;;4995434;28;20028;-68
2022/12/18 00:46:48;;;;;;;20.70;8.13;;;;;;;;;;4993170;28;20018;-68
2022/12/18 00:49:17;;;;;;;10.38;5.30;;;;;;;;;;4992168;28;20022;-68
2022/12/18 00:51:43;;;;;;;20.17;6.53;;;;;;;;;;4992948;28;20502;-68
2022/12/18 00:54:08;;;;;;;15.05;4.70;;;;;;;;;;4993378;28;20049;-68
2022/12/18 00:56:34;;;;;;;7.50;3.35;;;;;;;;;;4992835;28;20010;-68
2022/12/18 00:59:00;;;;;;;11.18;4.60;;;;;;;;;;4993436;28;20592;-68
2022/12/18 01:01:25;;;;;;;11.50;4.55;;;;;;;;;;4993747;28;20018;-68
2022/12/18 01:03:50;;;;;;;23.27;9.57;;;;;;;;;;4991485;28;20026;-68
2022/12/18 01:06:16;;;;;;;21.48;8.13;;;;;;;;;;4993133;28;20623;-68
2022/12/18 01:08:41;;;;;;;22.38;8.30;;;;;;;;;;4996777;28;20645;-68
2022/12/18 01:11:07;;;;;;;18.23;5.60;;;;;;;;;;4995835;28;20033;-68
2022/12/18 01:13:32;;;;;;;13.35;4.47;;;;;;;;;;4993435;28;20033;-68
2022/12/18 01:15:57;;;;;;;23.75;8.90;;;;;;;;;;4992993;28;20026;-68
2022/12/18 01:18:23;;;;;;;21.95;9.18;;;;;;;;;;4994513;28;20440;-69
2022/12/18 01:20:48;;;;;;;22.30;9.35;;;;;;;;;;4992598;28;20202;-68
2022/12/18 01:23:13;;;;;;;24.08;8.90;;;;;;;;;;4992773;28;20033;-68
2022/12/18 01:25:38;;;;;;;24.90;9.25;;;;;;;;;;4992861;28;20014;-68
2022/12/18 01:28:03;;;;;;;21.90;7.60;;;;;;;;;;4993383;28;20096;-69
2022/12/18 01:30:28;;;;;;;25.10;8.20;;;;;;;;;;4991856;28;20426;-68
2022/12/18 01:32:54;;;;;;;26.73;9.15;;;;;;;;;;4991330;28;20109;-68
2022/12/18 01:35:19;;;;;;;28.45;9.10;;;;;;;;;;4993485;28;20425;-69
2022/12/18 01:37:44;;;;;;;30.25;10.27;;;;;;;;;;5001536;28;20025;-69
2022/12/18 01:40:09;;;;;;;24.77;9.25;;;;;;;;;;4997425;28;20097;-69
2022/12/18 01:42:35;;;;;;;22.00;9.07;;;;;;;;;;5001750;28;20032;-68
2022/12/18 01:45:06;;;;;;;22.92;8.20;;;;;;;;;;4997634;28;20034;-68
2022/12/18 01:47:48;;;;;;;30.95;10.65;;;;;;;;;;4994282;28;20022;-68
2022/12/18 01:50:24;;;;;;;23.75;8.98;;;;;;;;;;4992400;28;20026;-68
2022/12/18 01:52:55;;;;;;;26.15;10.27;;;;;;;;;;4995520;28;20431;-68
2022/12/18 01:55:21;;;;;;;19.50;9.35;;;;;;;;;;5002443;28;20073;-68
2022/12/18 01:57:47;;;;;;;21.77;9.05;;;;;;;;;;5000431;28;20033;-68
2022/12/18 02:00:13;;;;;;;18.77;9.00;;;;;;;;;;4991016;28;20010;-69
2022/12/18 02:02:40;;;;;;;29.98;9.75;;;;;;;;;;4992625;28;20029;-68
2022/12/18 02:05:06;;;;;;;23.08;9.38;;;;;;;;;;4997011;28;20021;-68
2022/12/18 02:07:42;;;;;;;27.98;9.93;;;;;;;;;;5003754;28;20352;-68
2022/12/18 02:10:12;;;;;;;26.20;9.82;;;;;;;;;;4997315;28;20026;-69
2022/12/18 02:12:48;;;;;;;25.25;9.18;;;;;;;;;;4996043;28;20072;-68
2022/12/18 02:15:17;;;;;;;21.58;9.57;;;;;;;;;;4990134;28;20050;-68
2022/12/18 02:17:46;;;;;;;24.02;9.77;;;;;;;;;;4990212;28;20482;-68
2022/12/18 02:20:17;;;;;;;26.05;10.45;;;;;;;;;;4992187;28;20026;-69
2022/12/18 02:23:01;;;;;;;28.85;9.48;;;;;;;;;;4995581;28;20538;-68
2022/12/18 02:25:37;;;;;;;23.15;9.32;;;;;;;;;;4993442;28;20400;-68
2022/12/18 02:28:06;;;;;;;25.83;8.55;;;;;;;;;;4991200;28;20030;-68
2022/12/18 02:30:33;;;;;;;26.63;9.23;;;;;;;;;;4995514;28;20056;-69
2022/12/18 02:32:59;;;;;;;24.20;8.82;;;;;;;;;;4995403;28;20109;-68
2022/12/18 02:35:27;;;;;;;26.98;9.80;;;;;;;;;;5000446;28;20101;-68
2022/12/18 02:37:53;;;;;;;24.17;8.82;;;;;;;;;;4995082;28;20030;-68
2022/12/18 02:40:19;;;;;;;22.98;8.18;;;;;;;;;;4991335;28;20072;-68
2022/12/18 02:42:44;;;;;;;32.03;10.45;;;;;;;;;;4998748;28;20105;-68
2022/12/18 02:45:09;;;;;;;20.25;9.02;;;;;;;;;;4995981;28;20490;-68
2022/12/18 02:47:37;;;;;;;22.13;8.90;;;;;;;;;;5002015;28;20019;-68
2022/12/18 02:50:21;;;;;;;21.35;7.88;;;;;;;;;;4996627;28;20057;-68
2022/12/18 02:53:00;;;;;;;19.55;7.40;;;;;;;;;;4990491;28;20425;-68
2022/12/18 02:55:44;;;;;;;18.03;7.63;;;;;;;;;;4989878;28;20023;-68
2022/12/18 02:58:20;;;;;;;22.45;8.82;;;;;;;;;;4998302;28;20026;-68
2022/12/18 03:00:45;;;;;;;25.13;8.05;;;;;;;;;;4990527;28;20030;-68
2022/12/18 03:03:16;;;;;;;21.17;7.60;;;;;;;;;;4994782;28;20026;-67
2022/12/18 03:05:41;;;;;;;;;;;;;;;;;;4994222;28;20253;-67
2022/12/18 03:08:15;;;;;;;20.52;7.40;;;;;;;;;;4990752;28;20379;-67
2022/12/18 03:10:48;;;;;;;23.30;8.48;;;;;;;;;;4996191;28;20096;-67
2022/12/18 03:13:18;;;;;;;21.88;9.05;;;;;;;;;;4995190;28;20018;-67
2022/12/18 03:15:50;;;;;;;22.43;8.70;;;;;;;;;;4994066;28;20026;-67
2022/12/18 03:18:21;;;;;;;21.15;7.90;;;;;;;;;;4987714;28;20383;-67
2022/12/18 03:20:49;;;;;;;22.17;7.78;;;;;;;;;;4991059;28;20015;-67
2022/12/18 03:23:19;;;;;;;16.10;7.03;;;;;;;;;;4987387;28;20069;-67
2022/12/18 03:25:44;;;;;;;21.58;9.52;;;;;;;;;;4994695;28;20050;-67
2022/12/18 03:28:12;;;;;;;18.65;7.38;;;;;;;;;;4994903;28;20042;-67
2022/12/18 03:30:39;;;;;;;19.95;8.90;;;;;;;;;;5000805;28;20025;-67
2022/12/18 03:33:07;;;;;;;13.02;5.78;;;;;;;;;;4991666;28;20360;-67
2022/12/18 03:35:34;;;;;;;21.60;7.38;;;;;;;;;;4996029;28;20094;-67
2022/12/18 03:38:00;;;;;;;20.08;7.70;;;;;;;;;;4989087;28;20053;-67
2022/12/18 03:40:31;;;;;;;25.70;8.50;;;;;;;;;;4993053;28;20467;-67
2022/12/18 03:43:01;;;;;;;21.48;7.70;;;;;;;;;;4990106;28;20022;-67
2022/12/18 03:45:29;;;;;;;19.85;8.68;;;;;;;;;;4995591;28;20037;-68
2022/12/18 03:48:04;;;;;;;27.50;8.15;;;;;;;;;;4989006;28;20031;-67
2022/12/18 03:50:33;;;;;;;18.55;7.57;;;;;;;;;;4990828;28;20025;-67
2022/12/18 03:53:02;;;;;;;16.98;6.85;;;;;;;;;;4990144;28;20022;-67
2022/12/18 03:55:30;;;;;;;22.50;8.07;;;;;;;;;;4998548;28;20022;-68
2022/12/18 03:57:56;;;;;;;21.65;8.38;;;;;;;;;;4995626;28;20493;-67
2022/12/18 04:00:21;;;;;;;30.05;7.90;;;;;;;;;;4994343;28;20018;-67
2022/12/18 04:02:54;;;;;;;18.05;7.10;;;;;;;;;;4998020;28;20459;-67
2022/12/18 04:05:20;;;;;;;20.85;8.25;;;;;;;;;;4991854;28;20028;-67
2022/12/18 04:07:46;;;;;;;25.35;7.25;;;;;;;;;;5000998;28;20441;-67
2022/12/18 04:10:12;;;;;;;19.08;7.72;;;;;;;;;;4994383;28;20029;-68
2022/12/18 04:12:37;;;;;;;27.75;8.70;;;;;;;;;;4990446;28;20034;-67
2022/12/18 04:15:02;;;;;;;19.08;7.63;;;;;;;;;;4986900;28;20371;-67
2022/12/18 04:17:28;;;;;;;17.73;7.22;;;;;;;;;;4992695;28;20026;-67
2022/12/18 04:19:53;;;;;;;24.30;7.95;;;;;;;;;;4997958;28;20053;-67
2022/12/18 04:22:18;;;;;;;21.90;8.02;;;;;;;;;;4997358;28;20097;-67
2022/12/18 04:24:43;;;;;;;22.80;9.35;;;;;;;;;;4996404;28;20506;-68
2022/12/18 04:27:08;;;;;;;21.52;7.15;;;;;;;;;;4994337;28;20025;-67
2022/12/18 04:29:34;;;;;;;18.80;7.75;;;;;;;;;;4994550;28;20387;-67
2022/12/18 04:31:59;;;;;;;25.75;7.95;;;;;;;;;;4993430;28;20109;-67
2022/12/18 04:34:24;;;;;;;22.58;8.57;;;;;;;;;;5000868;28;20020;-67
2022/12/18 04:36:49;;;;;;;17.83;7.63;;;;;;;;;;4997576;28;20010;-67
2022/12/18 04:39:15;;;;;;;19.70;7.35;;;;;;;;;;4996914;28;20050;-67
2022/12/18 04:41:41;;;;;;;20.10;7.82;;;;;;;;;;4995453;28;20022;-67
2022/12/18 04:44:06;;;;;;;20.02;6.93;;;;;;;;;;4993838;28;20018;-67
2022/12/18 04:46:31;;;;;;;23.38;7.80;;;;;;;;;;4994313;28;20022;-67
2022/12/18 04:48:56;;;;;;;24.00;7.97;;;;;;;;;;4998753;28;20530;-67
2022/12/18 04:51:21;;;;;;;23.30;7.20;;;;;;;;;;4993298;28;20022;-67
2022/12/18 04:53:47;;;;;;;18.98;6.97;;;;;;;;;;5001240;28;20013;-67
2022/12/18 04:56:13;;;;;;;16.90;7.57;;;;;;;;;;4993496;28;20017;-67
2022/12/18 04:58:39;;;;;;;25.25;8.00;;;;;;;;;;4992149;28;20041;-67
2022/12/18 05:01:04;;;;;;;21.08;7.82;;;;;;;;;;4996200;28;20463;-67
2022/12/18 05:03:30;;;;;;;21.35;9.07;;;;;;;;;;5000261;28;20093;-67
2022/12/18 05:05:55;;;;;;;18.77;8.43;;;;;;;;;;4997556;28;20018;-67
2022/12/18 05:08:20;;;;;;;18.08;8.07;;;;;;;;;;4996669;28;20407;-67
2022/12/18 05:10:46;;;;;;;20.08;6.88;;;;;;;;;;4993315;28;20418;-67
2022/12/18 05:13:11;;;;;;;19.83;6.63;;;;;;;;;;4990082;28;20057;-66
2022/12/18 05:15:36;;;;;;;15.75;6.95;;;;;;;;;;4992874;28;20046;-67
2022/12/18 05:18:03;;;;;;;20.10;8.55;;;;;;;;;;4995834;28;20468;-67
2022/12/18 05:20:28;;;;;;;17.52;6.88;;;;;;;;;;4996346;28;20018;-67
2022/12/18 05:22:54;;;;;;;15.70;6.65;;;;;;;;;;4998818;28;20028;-67
2022/12/18 05:25:19;;;;;;;22.10;8.57;;;;;;;;;;4991169;28;20015;-67
2022/12/18 05:27:44;;;;;;;20.77;8.27;;;;;;;;;;4997839;28;20134;-67
2022/12/18 05:30:10;;;;;;;18.35;7.05;;;;;;;;;;4993227;28;20482;-67
2022/12/18 05:32:35;;;;;;;23.05;7.65;;;;;;;;;;4992542;28;20537;-67
2022/12/18 05:35:01;;;;;;;17.17;7.32;;;;;;;;;;4992493;28;20101;-67
2022/12/18 05:37:26;;;;;;;26.13;8.50;;;;;;;;;;4997285;28;20025;-67
2022/12/18 05:39:51;;;;;;;23.33;7.40;;;;;;;;;;4992058;28;20014;-67
2022/12/18 05:42:16;;;;;;;17.02;7.05;;;;;;;;;;4992435;28;20506;-67
2022/12/18 05:44:42;;;;;;;15.20;6.40;;;;;;;;;;4997672;28;20383;-67
2022/12/18 05:47:08;;;;;;;18.30;7.00;;;;;;;;;;4998908;28;20106;-67
2022/12/18 05:49:33;;;;;;;15.50;6.38;;;;;;;;;;4995762;28;20113;-67
2022/12/18 05:51:58;;;;;;;17.63;7.07;;;;;;;;;;4992762;28;20403;-67
2022/12/18 05:54:23;;;;;;;15.45;4.72;;;;;;;;;;4992281;28;20014;-67
2022/12/18 05:56:48;;;;;;;20.63;7.15;;;;;;;;;;4990611;28;20010;-66
2022/12/18 05:59:14;;;;;;;27.23;8.27;;;;;;;;;;4995074;28;20015;-67
2022/12/18 06:01:39;;;;;;;16.05;6.53;;;;;;;;;;4994978;28;20092;-67
2022/12/18 06:04:04;;;;;;;25.13;7.28;;;;;;;;;;4995113;28;20101;-67
2022/12/18 06:06:29;;;;;;;12.52;4.82;;;;;;;;;;4993732;28;20048;-67
2022/12/18 06:08:55;;;;;;;20.45;7.35;;;;;;;;;;4991863;28;20017;-67
2022/12/18 06:11:24;;;;;;;22.20;7.72;;;;;;;;;;4992046;28;20011;-67
2022/12/18 06:13:54;;;;;;;21.17;8.23;;;;;;;;;;4994427;28;20419;-67
2022/12/18 06:16:19;;;;;;;21.50;6.93;;;;;;;;;;4994190;28;20088;-67
2022/12/18 06:18:45;;;;;;;25.45;6.93;;;;;;;;;;4992974;28;20483;-67
2022/12/18 06:21:10;;;;;;;21.80;6.95;;;;;;;;;;4990963;28;20018;-67
2022/12/18 06:23:35;;;;;;;13.65;4.25;;;;;;;;;;4991326;28;20436;-67
2022/12/18 06:26:08;;;;;;;14.73;6.05;;;;;;;;;;4994040;28;20041;-67
2022/12/18 06:28:33;;;;;;;20.48;7.45;;;;;;;;;;4992013;28;20107;-67
2022/12/18 06:30:58;;;;;;;21.42;8.65;;;;;;;;;;4996198;28;20026;-67
2022/12/18 06:33:26;;;;;;;23.08;7.65;;;;;;;;;;4992165;28;20014;-67
2022/12/18 06:35:51;;;;;;;15.60;5.78;;;;;;;;;;4993644;28;20023;-67
2022/12/18 06:38:16;;;;;;;18.30;7.82;;;;;;;;;;4991247;28;20026;-68
2022/12/18 06:40:41;;;;;;;17.15;7.05;;;;;;;;;;4992958;28;20022;-67
2022/12/18 06:43:07;;;;;;;18.88;7.68;;;;;;;;;;4991982;28;20017;-67
2022/12/18 06:45:32;;;;;;;22.63;7.68;;;;;;;;;;4989773;28;20037;-68
2022/12/18 06:47:57;;;;;;;26.00;8.07;;;;;;;;;;4990930;28;20050;-68
2022/12/18 06:50:23;;;;;;;20.90;7.57;;;;;;;;;;4990100;28;20042;-67
2022/12/18 06:52:48;;;;;;;19.95;7.50;;;;;;;;;;4993561;28;20022;-67
2022/12/18 06:55:13;;;;;;;12.55;6.35;;;;;;;;;;4987938;28;20018;-67
2022/12/18 06:57:38;;;;;;;19.88;8.00;;;;;;;;;;4990958;28;20399;-67
2022/12/18 07:00:05;;;;;;;21.25;7.18;;;;;;;;;;4990828;28;20064;-67
2022/12/18 07:02:30;;;;;;;20.40;7.35;;;;;;;;;;4990748;28;20077;-67
2022/12/18 07:04:55;;;;;;;17.50;5.95;;;;;;;;;;4989641;28;20022;-67
2022/12/18 07:07:20;;;;;;;10.68;4.82;;;;;;;;;;4990990;28;20074;-67
2022/12/18 07:09:46;;;;;;;12.93;5.82;;;;;;;;;;4993867;28;20386;-67
2022/12/18 07:12:11;;;;;;;11.77;4.38;;;;;;;;;;4990608;28;20158;-67
2022/12/18 07:14:36;;;;;;;6.80;2.45;;;;;;;;;;4990693;28;20011;-67
2022/12/18 07:17:01;;;;;;;8.52;5.50;;;;;;;;;;4992812;28;20031;-67
2022/12/18 07:19:26;;;;;;;19.63;5.47;;;;;;;;;;4990227;28;20490;-68
2022/12/18 07:21:52;;;;;;;27.92;9.23;;;;;;;;;;4990246;28;20022;-67
2022/12/18 07:24:17;;;;;;;37.63;12.02;;;;;;;;;;4991152;28;20014;-67
2022/12/18 07:26:42;;;;;;;13.02;4.88;;;;;;;;;;4991111;28;20022;-67
2022/12/18 07:29:07;;;;;;;7.53;3.83;;;;;;;;;;4989969;28;20026;-67
2022/12/18 07:31:33;;;;;;;10.30;3.58;;;;;;;;;;4991417;28;20034;-68
2022/12/18 07:33:58;;;;;;;5.70;3.50;;;;;;;;;;4990547;28;20021;-67
2022/12/18 07:36:23;;;;;;;5.03;2.85;;;;;;;;;;4994708;28;20015;-68
2022/12/18 07:38:49;;;;;;;14.00;6.72;;;;;;;;;;4996510;28;20069;-68
2022/12/18 07:41:14;;;;;;;15.07;6.75;;;;;;;;;;4990609;28;20072;-68
2022/12/18 07:43:40;;;;;;;13.27;5.95;;;;;;;;;;4993426;28;20078;-68
2022/12/18 07:46:06;;;;;;;26.67;9.93;;;;;;;;;;4989420;28;20061;-68
2022/12/18 07:48:31;;;;;;;27.75;10.07;;;;;;;;;;4991654;28;20022;-68
2022/12/18 07:51:00;;;;;;;31.95;11.13;;;;;;;;;;4990197;28;20023;-68
2022/12/18 07:53:26;;;;;;;28.38;11.30;;;;;;;;;;4990044;28;20018;-68
2022/12/18 07:55:55;;;;;;;21.40;9.07;;;;;;;;;;4992167;28;20014;-68
2022/12/18 07:58:20;;;;;;;27.90;9.95;;;;;;;;;;4990852;28;20023;-68
2022/12/18 08:00:45;;;;;;;20.42;7.65;;;;;;;;;;4989692;28;20081;-68
2022/12/18 08:03:11;;;;;;;9.23;4.68;;;;;;;;;;4987932;28;20026;-68
2022/12/18 08:05:37;;;;;;;4.47;2.00;;;;;;;;;;4990661;28;20046;-68
2022/12/18 08:08:02;;;;;;;9.32;5.18;;;;;;;;;;4992687;28;20061;-68
2022/12/18 08:10:27;;;;;;;23.08;8.00;;;;;;;;;;4990026;28;20026;-68
2022/12/18 08:12:52;;;;;;;23.73;9.65;;;;;;;;;;4989710;28;20015;-68
2022/12/18 08:15:17;;;;;;;23.33;8.85;;;;;;;;;;4989146;28;20022;-68
2022/12/18 08:17:43;;;;;;;8.65;4.03;;;;;;;;;;4992598;28;20154;-68
2022/12/18 08:20:08;;;;;;;23.95;7.43;;;;;;;;;;4990035;28;20153;-68
2022/12/18 08:22:35;;;;;;;23.13;8.93;;;;;;;;;;4990043;28;20015;-68
2022/12/18 08:25:00;;;;;;;22.17;7.15;;;;;;;;;;4989815;28;20011;-68
2022/12/18 08:27:25;;;;;;;17.10;6.55;;;;;;;;;;4990036;28;20015;-68
2022/12/18 08:29:50;;;;;;;23.92;8.73;;;;;;;;;;4987594;28;20383;-68
2022/12/18 08:32:16;;;;;;;12.68;6.30;;;;;;;;;;4989963;28;20125;-68
2022/12/18 08:34:41;;;;;;;23.20;7.30;;;;;;;;;;4992859;28;20014;-68
2022/12/18 08:37:06;;;;;;;13.38;5.85;;;;;;;;;;4990257;28;20025;-68
2022/12/18 08:39:31;;;;;;;33.42;11.18;;;;;;;;;;4990316;28;20018;-68
2022/12/18 08:44:41;;;;;;;23.98;9.43;;;;;;;;;;4992698;28;20439;-68
2022/12/18 08:47:06;;;;;;;19.88;8.65;;;;;;;;;;4993732;28;20026;-68
2022/12/18 08:49:32;;;;;;;16.40;6.57;;;;;;;;;;4993624;28;20076;-69
2022/12/18 08:51:57;;;;;;;19.90;6.93;;;;;;;;;;4994116;28;20022;-68
2022/12/18 08:54:23;;;;;;;13.57;6.40;;;;;;;;;;4993740;28;20014;-69
2022/12/18 08:56:49;;;;;;;30.40;9.70;;;;;;;;;;4992282;28;20423;-68
2022/12/18 08:59:14;;;;;;;31.13;10.68;;;;;;;;;;4993186;28;20026;-68
2022/12/18 09:01:39;;;;;;;19.77;8.20;;;;;;;;;;4991692;28;20027;-68
2022/12/18 09:04:05;;;;;;;23.42;10.23;;;;;;;;;;4993173;28;20019;-68
2022/12/18 09:06:30;;;;;;;25.02;6.75;;;;;;;;;;4993310;28;20018;-68
2022/12/18 09:08:56;;;;;;;25.38;9.63;;;;;;;;;;4993465;28;20368;-68
2022/12/18 09:11:26;;;;;;;22.83;10.15;;;;;;;;;;4993134;28;20076;-68
2022/12/18 09:13:51;;;;;;;18.90;8.02;;;;;;;;;;4990999;28;20407;-68
2022/12/18 09:16:17;;;;;;;17.92;8.45;;;;;;;;;;4993190;28;20011;-67
2022/12/18 09:18:42;;;;;;;15.25;5.53;;;;;;;;;;4992810;28;20030;-67
2022/12/18 09:21:08;;;;;;;20.02;7.90;;;;;;;;;;4992102;28;20125;-67
2022/12/18 09:23:33;;;;;;;21.00;7.25;;;;;;;;;;4993437;28;20495;-67
2022/12/18 09:25:59;;;;;;;20.73;8.98;;;;;;;;;;4992399;28;20034;-68
2022/12/18 09:28:24;;;;;;;16.23;7.93;;;;;;;;;;4991846;28;20093;-67
2022/12/18 09:30:49;;;;;;;15.77;4.88;;;;;;;;;;4991098;28;20032;-67
2022/12/18 09:33:15;;;;;;;20.58;6.30;;;;;;;;;;4992818;28;20021;-68
2022/12/18 09:35:41;;;;;;;17.30;6.65;;;;;;;;;;4993901;28;20022;-68
2022/12/18 09:38:08;;;;;;;18.73;8.70;;;;;;;;;;4992431;28;20041;-68
2022/12/18 09:40:41;;;;;;;11.82;5.18;;;;;;;;;;4990679;28;20110;-68
2022/12/18 09:43:07;;;;;;;9.25;4.22;;;;;;;;;;4994772;28;20175;-68
2022/12/18 09:45:40;;;;;;;16.38;6.32;;;;;;;;;;4992581;28;20525;-68
2022/12/18 09:48:08;;;;;;;20.75;8.02;;;;;;;;;;4993216;28;20467;-68
2022/12/18 09:50:36;;;;;;;21.50;7.07;;;;;;;;;;4996114;28;20049;-67
2022/12/18 09:53:06;;;;;;;15.98;7.50;;;;;;;;;;4991905;28;20027;-68
2022/12/18 09:55:34;;;;;;;14.13;5.47;;;;;;;;;;4993867;28;20497;-67
2022/12/18 09:58:26;;;;;;;14.95;5.18;;;;;;;;;;5021057;28;20083;-67
2022/12/18 10:00:52;;;;;;;12.15;4.40;;;;;;;;;;4990412;28;20026;-68
2022/12/18 10:03:17;;;;;;;19.27;7.93;;;;;;;;;;4994637;28;20018;-68
2022/12/18 10:05:43;;;;;;;16.33;5.47;;;;;;;;;;4992830;28;20543;-68
2022/12/18 10:08:08;;;;;;;21.40;7.83;;;;;;;;;;4993417;28;20157;-68
2022/12/18 10:10:39;;;;;;;17.70;8.55;;;;;;;;;;4991885;28;20289;-68
2022/12/18 10:13:04;;;;;;;19.17;8.95;;;;;;;;;;4993210;28;20014;-68
2022/12/18 10:15:30;;;;;;;18.43;8.03;;;;;;;;;;5024336;28;20021;-67
2022/12/18 10:18:02;;;;;;;13.88;5.18;;;;;;;;;;4993398;28;20260;-67
2022/12/18 10:20:32;;;;;;;19.35;8.23;;;;;;;;;;4993603;28;20006;-68
2022/12/18 10:22:57;;;;;;;14.35;7.32;;;;;;;;;;4992177;28;20503;-68
2022/12/18 10:25:25;;;;;;;14.93;5.03;;;;;;;;;;4991882;28;20061;-68
2022/12/18 10:27:55;;;;;;;16.75;7.25;;;;;;;;;;4993173;28;20293;-67
2022/12/18 10:30:22;;;;;;;14.02;5.78;;;;;;;;;;4995485;28;20071;-67
2022/12/18 10:32:47;;;;;;;10.57;5.78;;;;;;;;;;4993907;28;20113;-68
2022/12/18 10:35:19;;;;;;;14.77;7.43;;;;;;;;;;4993499;28;20046;-68
2022/12/18 10:37:59;;;;;;;16.20;6.72;;;;;;;;;;4992960;28;20026;-68
2022/12/18 10:40:24;;;;;;;22.85;10.00;;;;;;;;;;4992517;28;20026;-68
2022/12/18 10:43:03;;;;;;;11.18;5.75;;;;;;;;;;4992162;28;20026;-67
2022/12/18 10:45:28;;;;;;;21.08;8.52;;;;;;;;;;4992851;28;20380;-67
2022/12/18 10:47:53;;;;;;;18.95;8.10;;;;;;;;;;4991958;28;20068;-68
2022/12/18 10:50:23;;;;;;;18.60;8.90;;;;;;;;;;4993857;28;20076;-68
2022/12/18 10:52:48;;;;;;;;;;;;;;;;;;4991598;28;20507;-68
2022/12/18 10:55:15;;;;;;;13.20;6.07;;;;;;;;;;4992525;28;20384;-68
2022/12/18 10:57:41;;;;;;;17.25;7.13;;;;;;;;;;4992749;28;20078;-67
2022/12/18 11:00:18;;;;;;;22.55;9.38;;;;;;;;;;4992002;28;20491;-68
2022/12/18 11:02:44;;;;;;;19.38;6.88;;;;;;;;;;4992144;28;20025;-68
2022/12/18 11:05:27;;;;;;;14.35;5.97;;;;;;;;;;4990967;28;20022;-68
2022/12/18 11:07:54;;;;;;;20.98;8.48;;;;;;;;;;5023830;28;20026;-68
2022/12/18 11:10:20;;;;;;;20.95;9.15;;;;;;;;;;4994780;28;20010;-68
2022/12/18 11:12:45;;;;;;;28.77;10.85;;;;;;;;;;4992533;28;20426;-68
2022/12/18 11:15:27;;;;;;;23.13;7.72;;;;;;;;;;4990543;28;20396;-68
2022/12/18 11:17:53;;;;;;;15.75;7.40;;;;;;;;;;4990666;28;20042;-68
2022/12/18 11:20:29;;;;;;;21.92;8.93;;;;;;;;;;4992068;28;20427;-68
2022/12/18 11:23:02;;;;;;;16.73;8.13;;;;;;;;;;4991978;28;20033;-68
2022/12/18 11:25:28;;;;;;;25.25;11.27;;;;;;;;;;4993738;28;20018;-68
2022/12/18 11:27:57;;;;;;;25.83;11.50;;;;;;;;;;4991397;28;20014;-69
2022/12/18 11:30:24;;;;;;;19.30;5.25;;;;;;;;;;4990715;28;20022;-69
2022/12/18 11:32:52;;;;;;;26.90;9.32;;;;;;;;;;4989288;28;20062;-69
2022/12/18 11:35:36;;;;;;;18.92;7.68;;;;;;;;;;4990594;28;20012;-69
2022/12/18 11:38:25;;;;;;;26.63;11.07;;;;;;;;;;4990291;28;20471;-69
2022/12/18 11:41:10;;;;;;;24.80;11.60;;;;;;;;;;4987626;28;20038;-69
2022/12/18 11:43:38;;;;;;;20.17;8.82;;;;;;;;;;4983515;28;20390;-69
2022/12/18 11:46:06;;;;;;;26.30;10.75;;;;;;;;;;4989122;28;20081;-69
2022/12/18 11:48:41;;;;;;;21.63;7.75;;;;;;;;;;4990145;28;20026;-69
2022/12/18 11:51:11;;;;;;;27.23;10.15;;;;;;;;;;4990237;28;20471;-69
2022/12/18 11:53:38;;;;;;;14.32;7.13;;;;;;;;;;4990707;28;20025;-69
2022/12/18 11:56:27;;;;;;;18.13;8.23;;;;;;;;;;4990257;28;20505;-69
2022/12/18 11:58:58;;;;;;;34.33;14.88;;;;;;;;;;4992643;28;20022;-69
2022/12/18 12:01:23;;;;;;;28.65;12.30;;;;;;;;;;4989369;28;20018;-69
2022/12/18 12:04:08;;;;;;;27.38;14.88;;;;;;;;;;4990126;28;20018;-69
2022/12/18 12:06:33;;;;;;;32.20;9.82;;;;;;;;;;4990337;28;20137;-69
2022/12/18 12:09:07;;;;;;;27.00;11.18;;;;;;;;;;4991323;28;20180;-69
2022/12/18 12:11:41;;;;;;;16.52;6.40;;;;;;;;;;4990275;28;20026;-69
2022/12/18 12:14:15;;;;;;;25.88;13.48;;;;;;;;;;4991999;28;20023;-69
2022/12/18 12:17:06;;;;;;;24.77;11.48;;;;;;;;;;4993241;28;20018;-69
2022/12/18 12:19:41;;;;;;;29.98;14.07;;;;;;;;;;4991467;28;20181;-69
2022/12/18 12:22:07;;;;;;;29.38;11.75;;;;;;;;;;4996688;28;20022;-69
2022/12/18 12:24:38;;;;;;;27.52;10.73;;;;;;;;;;4994230;28;20372;-69
2022/12/18 12:27:22;;;;;;;34.40;13.32;;;;;;;;;;4993967;28;20030;-69
2022/12/18 12:29:47;;;;;;;39.38;15.82;;;;;;;;;;4993002;28;20014;-69
2022/12/18 12:32:19;;;;;;;27.88;12.82;;;;;;;;;;4994125;28;20030;-69
2022/12/18 12:34:47;;;;;;;34.05;14.15;;;;;;;;;;4994259;28;20262;-69
2022/12/18 12:37:20;;;;;;;20.23;8.55;;;;;;;;;;4993561;28;20387;-69
2022/12/18 12:39:46;;;;;;;30.95;13.13;;;;;;;;;;4989955;28;20026;-69
2022/12/18 12:45:21;;;;;;;35.70;11.88;;;;;;;;;;4992367;28;20018;-69
2022/12/18 12:47:48;;;;;;;29.15;12.95;;;;;;;;;;4993630;28;20026;-69
2022/12/18 12:50:16;;;;;;;29.83;11.00;;;;;;;;;;4993366;28;20033;-69
2022/12/18 12:52:46;;;;;;;19.20;8.30;;;;;;;;;;4989255;28;20100;-69
2022/12/18 12:55:17;;;;;;;30.45;10.40;;;;;;;;;;4996403;28;20018;-69
2022/12/18 12:58:05;;;;;;;29.70;10.75;;;;;;;;;;4991533;28;20041;-69
2022/12/18 13:00:35;;;;;;;41.47;13.68;;;;;;;;;;4984908;28;20034;-69
2022/12/18 13:03:29;;;;;;;25.85;10.48;;;;;;;;;;4993314;28;20022;-69
2022/12/18 13:05:59;;;;;;;32.20;14.13;;;;;;;;;;4993704;28;20033;-69
2022/12/18 13:08:25;;;;;;;34.83;17.02;;;;;;;;;;4993288;28;20475;-69
2022/12/18 13:12:55;;;;;;;36.05;16.42;;;;;;;;;;4993283;28;20030;-69
2022/12/18 13:13:49;;;;;;;31.98;13.32;;;;;;;;;;4991659;28;20026;-69
2022/12/18 13:16:18;;;;;;;40.63;13.70;;;;;;;;;;4992696;28;20014;-69
2022/12/18 13:18:48;;;;;;;23.45;10.07;;;;;;;;;;4993331;28;20440;-69
2022/12/18 13:21:13;;;;;;;;;;;;;;;;;;4993166;28;20125;-69
2022/12/18 13:23:38;;;;;;;24.45;9.32;;;;;;;;;;4993827;28;19993;-69
2022/12/18 13:26:07;;;;;;;28.30;12.40;;;;;;;;;;4990898;28;20015;-69
2022/12/18 13:28:33;;;;;;;39.10;17.20;;;;;;;;;;4992744;28;20018;-69
2022/12/18 13:30:59;;;;;;;34.83;13.20;;;;;;;;;;4993022;28;20014;-69
2022/12/18 13:33:24;;;;;;;34.53;17.05;;;;;;;;;;4992772;28;20026;-69
2022/12/18 13:36:09;;;;;;;29.53;13.40;;;;;;;;;;4992761;28;20018;-69
2022/12/18 13:38:35;;;;;;;26.10;11.88;;;;;;;;;;4991583;28;20304;-69
2022/12/18 13:41:00;;;;;;;35.58;17.27;;;;;;;;;;4992381;28;20101;-68
2022/12/18 13:43:30;;;;;;;28.95;14.07;;;;;;;;;;4992557;28;20105;-68
2022/12/18 13:45:59;;;;;;;31.90;13.60;;;;;;;;;;4997892;28;20558;-68
2022/12/18 13:48:25;;;;;;;28.45;10.68;;;;;;;;;;4992441;28;20531;-68
2022/12/18 13:50:52;;;;;;;34.42;13.63;;;;;;;;;;4991262;28;20022;-68
2022/12/18 13:53:21;;;;;;;34.50;13.05;;;;;;;;;;4992193;28;20026;-68
2022/12/18 13:55:46;;;;;;;24.90;10.35;;;;;;;;;;4992487;28;20015;-68
2022/12/18 13:58:11;;;;;;;21.67;8.82;;;;;;;;;;4996726;28;20014;-68
2022/12/18 14:00:40;;;;;;;39.42;14.23;;;;;;;;;;4992396;28;20092;-68
2022/12/18 14:03:15;;;;;;;34.88;15.63;;;;;;;;;;4991466;28;20487;-68
2022/12/18 14:05:43;;;;;;;42.28;12.63;;;;;;;;;;4990719;28;20448;-68
2022/12/18 14:08:11;;;;;;;30.92;10.35;;;;;;;;;;4987904;28;20483;-68
2022/12/18 14:10:40;;;;;;;30.13;11.63;;;;;;;;;;4989260;28;20487;-68
2022/12/18 14:13:06;;;;;;;32.35;13.18;;;;;;;;;;4988124;28;20026;-68
2022/12/18 14:15:36;;;;;;;45.97;19.20;;;;;;;;;;4991381;28;20022;-69
2022/12/18 14:18:13;;;;;;;38.63;16.88;;;;;;;;;;4987505;28;20418;-69
2022/12/18 14:20:41;;;;;;;31.52;12.63;;;;;;;;;;4985233;28;20014;-69
2022/12/18 14:23:24;;;;;;;29.02;11.80;;;;;;;;;;4993763;28;20025;-69
2022/12/18 14:25:49;;;;;;;35.33;13.90;;;;;;;;;;4990341;28;20054;-69
2022/12/18 14:28:15;;;;;;;32.03;11.63;;;;;;;;;;4989379;28;20452;-69
2022/12/18 14:30:43;;;;;;;29.58;14.02;;;;;;;;;;4990201;28;20028;-69
2022/12/18 14:33:12;;;;;;;44.45;20.30;;;;;;;;;;4991549;28;20026;-68
2022/12/18 14:35:42;;;;;;;40.85;19.60;;;;;;;;;;4991959;28;20025;-68
2022/12/18 14:38:11;;;;;;;46.50;18.43;;;;;;;;;;4993468;28;20025;-68
2022/12/18 14:40:36;;;;;;;38.03;17.95;;;;;;;;;;4990492;28;20097;-68